TER weather

Lajes Airport
Praia da Vitória, Autonomous Region of Azores, Portugal

Public forecast

Using degrees Celsius for public forecast. Weather courtesy of forecast.io.

METAR (pilot weather report)

Retrieved 2019/08/25 21:00 UTC (19 minutes ago):

LPLA 252100Z /////KT 9999 FEW022 BKN030 21/17 Q1024

TAF (pilot weather forecast)

Retrieved 2019/08/25 18:18 UTC (3 hours ago):

TAF TAF LPLA 251704Z 2518/2618 09005KT 9999 FEW025 BKN035 BECMG 2612/2615 18008KT